Airfield :
LOGIN :

Register | Disclaimer

   EN    FR    IT 

 










Legend :    VFR   Marginal VFR   IFR   Intensive IFR   Very Intensive IFR
Visi :
Ceiling :
>= 8 km
>= 3000ft
5 to 8 km
1000 to 3000 ft
1500m to 5 km
500 to 1000 ft
800 to 1500m
200 to 500 ft
< 800m
< 200 ft
Symbols :   Thunderstorms  Fog  Heavy snow  Heavy precipitations  Wind > 20 kt
SIGMETs :     Misc.  Thunderstorms  Icing  Turbulence  Mountain Waves  Volcanic Ashes







- Airport Elevation : 7 ft
- IATA code : POW


LJPZ - Portoroz

CURRENT METAR :
  • 191830Z 36003KT 290V030 CAVOK 26/20 Q1011

EXPIRED METARs :
  • 191800Z VRB02KT CAVOK 27/18 Q1011
  • 191730Z VRB02KT CAVOK 27/19 Q1011
  • 191700Z 23005KT CAVOK 28/20 Q1011
  • 191630Z 23004KT 200V260 CAVOK 29/18 Q1011
  • 191600Z 21006KT 180V240 CAVOK 30/19 Q1011

TAF TAF LJPZ
Valid from the 19 at 18:00 until the 20 at 03:00 UTC


191700Z 1918/2003 VRB02KT CAVOK
PROB40
TEMPO 1918/1920 SHRA SCT050TCU
BECMG 1918/1920 12005KT
No reported NOTAMs for that airfield.



MET'MAP, your aeronautical weather chart ! - Copyright ORBIFLY December 2007 - Disclaimer

ORBIFLY MET'MAP TEAM :

Programming & Development : Alexandra Zaïnal
Concept & Development : Baudouin d'Aumeries
Co-Development & Prog : Marc-Olivier Méhu
Technical & hardware support : Manuel Goepfert

Contact : metmap@orbifly.com




SOURCES & CREDITS :

   NOAA